sensor_id;sensor_type;location;lat;lon;timestamp;pressure;altitude;pressure_sealevel;temperature
69420;BMP280;56612;52.030;113.524;2022-08-23T00:02:32;93541.97;;;13.54
69420;BMP280;56612;52.030;113.524;2022-08-23T00:05:36;93541.25;;;13.52
69420;BMP280;56612;52.030;113.524;2022-08-23T00:08:41;93554.13;;;13.61
69420;BMP280;56612;52.030;113.524;2022-08-23T00:11:53;93552.16;;;13.66
69420;BMP280;56612;52.030;113.524;2022-08-23T00:14:58;93540.09;;;13.71
69420;BMP280;56612;52.030;113.524;2022-08-23T00:18:01;93550.28;;;13.85
69420;BMP280;56612;52.030;113.524;2022-08-23T00:21:05;93552.41;;;13.96
69420;BMP280;56612;52.030;113.524;2022-08-23T00:24:10;93552.47;;;14.05
69420;BMP280;56612;52.030;113.524;2022-08-23T00:27:16;93553.19;;;14.15
69420;BMP280;56612;52.030;113.524;2022-08-23T00:30:20;93553.91;;;14.24
69420;BMP280;56612;52.030;113.524;2022-08-23T00:33:24;93558.59;;;14.19
69420;BMP280;56612;52.030;113.524;2022-08-23T00:36:28;93548.53;;;14.24
69420;BMP280;56612;52.030;113.524;2022-08-23T00:39:32;93548.63;;;14.36
69420;BMP280;56612;52.030;113.524;2022-08-23T00:46:47;93552.72;;;14.47
69420;BMP280;56612;52.030;113.524;2022-08-23T00:50:50;93543.31;;;14.56
69420;BMP280;56612;52.030;113.524;2022-08-23T00:53:54;93537.41;;;14.86
69420;BMP280;56612;52.030;113.524;2022-08-23T00:57:02;93532.75;;;15.01
69420;BMP280;56612;52.030;113.524;2022-08-23T01:00:09;93538.19;;;15.21
69420;BMP280;56612;52.030;113.524;2022-08-23T01:03:13;93538.22;;;15.41
69420;BMP280;56612;52.030;113.524;2022-08-23T01:09:28;93528.81;;;15.67
69420;BMP280;56612;52.030;113.524;2022-08-23T01:12:38;93528.81;;;15.71
69420;BMP280;56612;52.030;113.524;2022-08-23T01:15:51;93532.16;;;16.02
69420;BMP280;56612;52.030;113.524;2022-08-23T01:18:59;93524.75;;;16.04
69420;BMP280;56612;52.030;113.524;2022-08-23T01:25:33;93533.44;;;16.43
69420;BMP280;56612;52.030;113.524;2022-08-23T01:28:38;93530.00;;;16.57
69420;BMP280;56612;52.030;113.524;2022-08-23T01:31:48;93524.50;;;16.83
69420;BMP280;56612;52.030;113.524;2022-08-23T01:34:52;93522.25;;;17.20
69420;BMP280;56612;52.030;113.524;2022-08-23T01:37:56;93521.31;;;17.56
69420;BMP280;56612;52.030;113.524;2022-08-23T01:41:00;93510.38;;;18.42
69420;BMP280;56612;52.030;113.524;2022-08-23T01:44:05;93514.13;;;19.18
69420;BMP280;56612;52.030;113.524;2022-08-23T01:47:10;93509.88;;;19.73
69420;BMP280;56612;52.030;113.524;2022-08-23T01:50:14;93508.19;;;20.29
69420;BMP280;56612;52.030;113.524;2022-08-23T01:53:18;93509.94;;;20.43
69420;BMP280;56612;52.030;113.524;2022-08-23T01:56:24;93508.34;;;20.21
69420;BMP280;56612;52.030;113.524;2022-08-23T01:59:44;93509.66;;;20.57
69420;BMP280;56612;52.030;113.524;2022-08-23T02:02:47;93502.97;;;21.15
69420;BMP280;56612;52.030;113.524;2022-08-23T02:05:51;93497.75;;;21.63
69420;BMP280;56612;52.030;113.524;2022-08-23T02:08:55;93489.19;;;22.04
69420;BMP280;56612;52.030;113.524;2022-08-23T02:12:11;93479.97;;;22.18
69420;BMP280;56612;52.030;113.524;2022-08-23T02:15:15;93472.69;;;22.35
69420;BMP280;56612;52.030;113.524;2022-08-23T02:18:21;93472.97;;;22.50
69420;BMP280;56612;52.030;113.524;2022-08-23T02:21:25;93470.66;;;22.58
69420;BMP280;56612;52.030;113.524;2022-08-23T02:24:29;93466.28;;;22.45
69420;BMP280;56612;52.030;113.524;2022-08-23T02:27:33;93458.19;;;22.88
69420;BMP280;56612;52.030;113.524;2022-08-23T02:30:38;93458.09;;;23.34
69420;BMP280;56612;52.030;113.524;2022-08-23T02:33:44;93456.09;;;23.92
69420;BMP280;56612;52.030;113.524;2022-08-23T02:36:48;93459.16;;;24.22
69420;BMP280;56612;52.030;113.524;2022-08-23T02:39:52;93445.81;;;24.49
69420;BMP280;56612;52.030;113.524;2022-08-23T02:42:56;93450.91;;;25.11
69420;BMP280;56612;52.030;113.524;2022-08-23T02:46:04;93444.94;;;25.57
69420;BMP280;56612;52.030;113.524;2022-08-23T02:49:08;93445.31;;;25.63
69420;BMP280;56612;52.030;113.524;2022-08-23T02:52:12;93444.59;;;25.65
69420;BMP280;56612;52.030;113.524;2022-08-23T02:55:17;93450.50;;;25.86
69420;BMP280;56612;52.030;113.524;2022-08-23T02:58:21;93442.97;;;26.18
69420;BMP280;56612;52.030;113.524;2022-08-23T03:01:29;93443.53;;;25.89
69420;BMP280;56612;52.030;113.524;2022-08-23T03:04:44;93445.81;;;26.31
69420;BMP280;56612;52.030;113.524;2022-08-23T03:07:48;93440.31;;;26.45
69420;BMP280;56612;52.030;113.524;2022-08-23T03:10:52;93434.75;;;26.47
69420;BMP280;56612;52.030;113.524;2022-08-23T03:13:56;93426.06;;;26.72
69420;BMP280;56612;52.030;113.524;2022-08-23T03:17:00;93423.78;;;27.19
69420;BMP280;56612;52.030;113.524;2022-08-23T03:20:05;93429.34;;;27.59
69420;BMP280;56612;52.030;113.524;2022-08-23T03:23:09;93418.03;;;27.10
69420;BMP280;56612;52.030;113.524;2022-08-23T03:26:14;93410.97;;;28.20
69420;BMP280;56612;52.030;113.524;2022-08-23T03:29:18;93405.88;;;28.12
69420;BMP280;56612;52.030;113.524;2022-08-23T03:32:48;93405.88;;;28.63
69420;BMP280;56612;52.030;113.524;2022-08-23T03:35:57;93399.44;;;28.18
69420;BMP280;56612;52.030;113.524;2022-08-23T03:39:04;93398.22;;;28.27
69420;BMP280;56612;52.030;113.524;2022-08-23T03:42:09;93388.31;;;28.20
69420;BMP280;56612;52.030;113.524;2022-08-23T03:45:13;93378.06;;;28.69
69420;BMP280;56612;52.030;113.524;2022-08-23T03:48:18;93373.31;;;28.55
69420;BMP280;56612;52.030;113.524;2022-08-23T03:51:23;93367.66;;;27.95
69420;BMP280;56612;52.030;113.524;2022-08-23T03:54:28;93370.84;;;27.07
69420;BMP280;56612;52.030;113.524;2022-08-23T03:57:32;93352.22;;;25.95
69420;BMP280;56612;52.030;113.524;2022-08-23T04:00:37;93352.44;;;26.20
69420;BMP280;56612;52.030;113.524;2022-08-23T04:03:42;93346.50;;;25.69
69420;BMP280;56612;52.030;113.524;2022-08-23T04:06:50;93349.84;;;25.72
69420;BMP280;56612;52.030;113.524;2022-08-23T04:09:55;93330.59;;;26.03
69420;BMP280;56612;52.030;113.524;2022-08-23T04:13:05;93345.06;;;26.60
69420;BMP280;56612;52.030;113.524;2022-08-23T04:16:12;93332.88;;;26.43
69420;BMP280;56612;52.030;113.524;2022-08-23T04:19:16;93329.03;;;27.72
69420;BMP280;56612;52.030;113.524;2022-08-23T04:22:32;93333.22;;;28.34
69420;BMP280;56612;52.030;113.524;2022-08-23T04:25:36;93319.16;;;27.52
69420;BMP280;56612;52.030;113.524;2022-08-23T04:28:41;93319.28;;;26.41
69420;BMP280;56612;52.030;113.524;2022-08-23T04:31:45;93308.97;;;25.68
69420;BMP280;56612;52.030;113.524;2022-08-23T04:34:51;93310.78;;;25.88
69420;BMP280;56612;52.030;113.524;2022-08-23T04:37:55;93307.34;;;25.73
69420;BMP280;56612;52.030;113.524;2022-08-23T04:41:00;93304.06;;;24.91
69420;BMP280;56612;52.030;113.524;2022-08-23T04:44:23;93303.16;;;24.46
69420;BMP280;56612;52.030;113.524;2022-08-23T04:47:28;93319.81;;;24.90
69420;BMP280;56612;52.030;113.524;2022-08-23T04:50:35;93310.13;;;24.77
69420;BMP280;56612;52.030;113.524;2022-08-23T04:53:52;93301.13;;;24.28
69420;BMP280;56612;52.030;113.524;2022-08-23T04:57:14;93298.00;;;24.38
69420;BMP280;56612;52.030;113.524;2022-08-23T05:00:20;93285.91;;;25.00
69420;BMP280;56612;52.030;113.524;2022-08-23T05:03:31;93287.03;;;25.22
69420;BMP280;56612;52.030;113.524;2022-08-23T05:06:35;93268.91;;;25.60
69420;BMP280;56612;52.030;113.524;2022-08-23T05:09:40;93268.78;;;24.85
69420;BMP280;56612;52.030;113.524;2022-08-23T05:12:45;93274.66;;;23.89
69420;BMP280;56612;52.030;113.524;2022-08-23T05:15:51;93267.38;;;23.46
69420;BMP280;56612;52.030;113.524;2022-08-23T05:19:01;93261.69;;;23.15
69420;BMP280;56612;52.030;113.524;2022-08-23T05:22:07;93259.78;;;23.30
69420;BMP280;56612;52.030;113.524;2022-08-23T05:25:34;93256.28;;;24.40
69420;BMP280;56612;52.030;113.524;2022-08-23T05:29:06;93261.63;;;24.92
69420;BMP280;56612;52.030;113.524;2022-08-23T05:32:17;93252.47;;;25.46
69420;BMP280;56612;52.030;113.524;2022-08-23T05:35:21;93253.59;;;26.24
69420;BMP280;56612;52.030;113.524;2022-08-23T05:38:25;93244.00;;;26.80
69420;BMP280;56612;52.030;113.524;2022-08-23T05:41:31;93235.72;;;25.68
69420;BMP280;56612;52.030;113.524;2022-08-23T05:44:45;93224.00;;;24.61
69420;BMP280;56612;52.030;113.524;2022-08-23T05:47:50;93229.00;;;24.23
69420;BMP280;56612;52.030;113.524;2022-08-23T05:51:18;93224.34;;;24.36
69420;BMP280;56612;52.030;113.524;2022-08-23T05:54:21;93214.41;;;24.29
69420;BMP280;56612;52.030;113.524;2022-08-23T05:57:48;93222.34;;;25.00
69420;BMP280;56612;52.030;113.524;2022-08-23T06:00:51;93217.25;;;27.45
69420;BMP280;56612;52.030;113.524;2022-08-23T06:04:00;93209.66;;;29.13
69420;BMP280;56612;52.030;113.524;2022-08-23T06:07:04;93212.69;;;31.76
69420;BMP280;56612;52.030;113.524;2022-08-23T06:10:08;93209.72;;;32.08
69420;BMP280;56612;52.030;113.524;2022-08-23T06:13:23;93211.34;;;33.92
69420;BMP280;56612;52.030;113.524;2022-08-23T06:16:33;93206.91;;;36.79
69420;BMP280;56612;52.030;113.524;2022-08-23T06:19:38;93189.31;;;36.44
69420;BMP280;56612;52.030;113.524;2022-08-23T06:23:07;93179.94;;;31.62
69420;BMP280;56612;52.030;113.524;2022-08-23T06:26:19;93181.75;;;32.12
69420;BMP280;56612;52.030;113.524;2022-08-23T06:29:25;93180.72;;;31.60
69420;BMP280;56612;52.030;113.524;2022-08-23T06:32:51;93160.97;;;30.68
69420;BMP280;56612;52.030;113.524;2022-08-23T06:36:13;93160.72;;;28.22
69420;BMP280;56612;52.030;113.524;2022-08-23T06:39:40;93153.88;;;27.49
69420;BMP280;56612;52.030;113.524;2022-08-23T06:43:10;93154.56;;;28.22
69420;BMP280;56612;52.030;113.524;2022-08-23T06:46:37;93140.25;;;27.35
69420;BMP280;56612;52.030;113.524;2022-08-23T06:49:42;93142.72;;;26.63
69420;BMP280;56612;52.030;113.524;2022-08-23T06:53:20;93133.84;;;26.75
69420;BMP280;56612;52.030;113.524;2022-08-23T06:56:43;93126.44;;;27.37
69420;BMP280;56612;52.030;113.524;2022-08-23T06:59:50;93132.13;;;27.58
69420;BMP280;56612;52.030;113.524;2022-08-23T07:03:17;93118.94;;;27.61
69420;BMP280;56612;52.030;113.524;2022-08-23T07:06:39;93115.84;;;27.67
69420;BMP280;56612;52.030;113.524;2022-08-23T07:09:43;93115.78;;;27.43
69420;BMP280;56612;52.030;113.524;2022-08-23T07:12:47;93111.47;;;26.71
69420;BMP280;56612;52.030;113.524;2022-08-23T07:15:59;93117.75;;;26.82
69420;BMP280;56612;52.030;113.524;2022-08-23T07:19:06;93110.06;;;26.72
69420;BMP280;56612;52.030;113.524;2022-08-23T07:22:11;93110.16;;;26.02
69420;BMP280;56612;52.030;113.524;2022-08-23T07:25:16;93109.59;;;25.58
69420;BMP280;56612;52.030;113.524;2022-08-23T07:28:24;93090.16;;;25.20
69420;BMP280;56612;52.030;113.524;2022-08-23T07:31:32;93097.13;;;25.31
69420;BMP280;56612;52.030;113.524;2022-08-23T07:34:36;93090.88;;;25.62
69420;BMP280;56612;52.030;113.524;2022-08-23T07:37:40;93090.84;;;27.47
69420;BMP280;56612;52.030;113.524;2022-08-23T07:40:46;93076.78;;;28.13
69420;BMP280;56612;52.030;113.524;2022-08-23T07:43:57;93072.00;;;27.03
69420;BMP280;56612;52.030;113.524;2022-08-23T07:47:04;93064.09;;;27.23
69420;BMP280;56612;52.030;113.524;2022-08-23T07:50:09;93081.19;;;27.84
69420;BMP280;56612;52.030;113.524;2022-08-23T07:53:13;93068.38;;;26.94
69420;BMP280;56612;52.030;113.524;2022-08-23T07:56:37;93067.50;;;25.93
69420;BMP280;56612;52.030;113.524;2022-08-23T07:59:55;93063.91;;;25.54
69420;BMP280;56612;52.030;113.524;2022-08-23T08:03:13;93058.97;;;25.00
69420;BMP280;56612;52.030;113.524;2022-08-23T08:06:47;93051.75;;;24.63
69420;BMP280;56612;52.030;113.524;2022-08-23T08:10:16;93052.56;;;25.62
69420;BMP280;56612;52.030;113.524;2022-08-23T08:13:20;93052.94;;;27.50
69420;BMP280;56612;52.030;113.524;2022-08-23T08:16:31;93046.63;;;28.00
69420;BMP280;56612;52.030;113.524;2022-08-23T08:19:36;93036.88;;;28.14
69420;BMP280;56612;52.030;113.524;2022-08-23T08:23:06;93023.78;;;28.93
69420;BMP280;56612;52.030;113.524;2022-08-23T08:26:10;93027.88;;;29.36
69420;BMP280;56612;52.030;113.524;2022-08-23T08:29:24;93034.16;;;30.47
69420;BMP280;56612;52.030;113.524;2022-08-23T08:32:28;93024.56;;;30.76
69420;BMP280;56612;52.030;113.524;2022-08-23T08:35:32;93021.22;;;30.84
69420;BMP280;56612;52.030;113.524;2022-08-23T08:38:38;93020.41;;;32.16
69420;BMP280;56612;52.030;113.524;2022-08-23T08:42:23;93016.81;;;33.81
69420;BMP280;56612;52.030;113.524;2022-08-23T08:46:07;93017.78;;;35.73
69420;BMP280;56612;52.030;113.524;2022-08-23T08:49:29;93014.63;;;34.30
69420;BMP280;56612;52.030;113.524;2022-08-23T08:52:59;93014.56;;;34.07
69420;BMP280;56612;52.030;113.524;2022-08-23T08:56:26;93013.03;;;32.83
69420;BMP280;56612;52.030;113.524;2022-08-23T08:59:57;93015.03;;;32.14
69420;BMP280;56612;52.030;113.524;2022-08-23T09:03:11;93012.44;;;30.33
69420;BMP280;56612;52.030;113.524;2022-08-23T09:19:45;92994.84;;;27.09
69420;BMP280;56612;52.030;113.524;2022-08-23T09:22:59;92995.25;;;27.63
69420;BMP280;56612;52.030;113.524;2022-08-23T09:26:20;93004.78;;;29.52
69420;BMP280;56612;52.030;113.524;2022-08-23T09:29:29;92997.06;;;30.36
69420;BMP280;56612;52.030;113.524;2022-08-23T09:32:36;93003.41;;;31.11
69420;BMP280;56612;52.030;113.524;2022-08-23T09:39:27;92987.38;;;30.75
69420;BMP280;56612;52.030;113.524;2022-08-23T09:42:38;92986.69;;;29.55
69420;BMP280;56612;52.030;113.524;2022-08-23T09:48:54;92981.72;;;31.80
69420;BMP280;56612;52.030;113.524;2022-08-23T09:52:33;92986.09;;;34.23
69420;BMP280;56612;52.030;113.524;2022-08-23T09:55:41;92969.59;;;33.48
69420;BMP280;56612;52.030;113.524;2022-08-23T09:58:46;92965.81;;;33.02
69420;BMP280;56612;52.030;113.524;2022-08-23T10:02:01;92955.38;;;32.34
69420;BMP280;56612;52.030;113.524;2022-08-23T10:05:27;92964.84;;;32.63
69420;BMP280;56612;52.030;113.524;2022-08-23T10:08:36;92956.59;;;32.01
69420;BMP280;56612;52.030;113.524;2022-08-23T10:11:45;92960.66;;;30.82
69420;BMP280;56612;52.030;113.524;2022-08-23T10:14:51;92950.25;;;31.57
69420;BMP280;56612;52.030;113.524;2022-08-23T10:18:04;92959.50;;;31.26
69420;BMP280;56612;52.030;113.524;2022-08-23T10:25:05;92954.34;;;32.12
69420;BMP280;56612;52.030;113.524;2022-08-23T10:28:21;92946.59;;;31.78
69420;BMP280;56612;52.030;113.524;2022-08-23T10:31:57;92943.63;;;31.71
69420;BMP280;56612;52.030;113.524;2022-08-23T10:35:24;92943.84;;;30.18
69420;BMP280;56612;52.030;113.524;2022-08-23T10:48:12;92938.41;;;26.01
69420;BMP280;56612;52.030;113.524;2022-08-23T10:51:36;92950.75;;;25.60
69420;BMP280;56612;52.030;113.524;2022-08-23T10:54:56;92954.44;;;25.12
69420;BMP280;56612;52.030;113.524;2022-08-23T10:58:21;92948.44;;;24.80
69420;BMP280;56612;52.030;113.524;2022-08-23T11:01:46;92954.56;;;24.37
69420;BMP280;56612;52.030;113.524;2022-08-23T11:05:18;92945.69;;;24.22
69420;BMP280;56612;52.030;113.524;2022-08-23T11:08:35;92942.44;;;24.02
69420;BMP280;56612;52.030;113.524;2022-08-23T11:12:16;92941.25;;;23.83
69420;BMP280;56612;52.030;113.524;2022-08-23T11:18:43;92948.00;;;23.19
69420;BMP280;56612;52.030;113.524;2022-08-23T11:22:13;92945.00;;;22.92
69420;BMP280;56612;52.030;113.524;2022-08-23T11:35:01;92948.16;;;22.44
69420;BMP280;56612;52.030;113.524;2022-08-23T11:38:08;92951.63;;;22.24
69420;BMP280;56612;52.030;113.524;2022-08-23T11:44:39;92955.16;;;22.02
69420;BMP280;56612;52.030;113.524;2022-08-23T11:48:03;92957.78;;;21.85
69420;BMP280;56612;52.030;113.524;2022-08-23T11:51:32;92963.44;;;21.58
69420;BMP280;56612;52.030;113.524;2022-08-23T12:01:41;92967.63;;;20.68
69420;BMP280;56612;52.030;113.524;2022-08-23T12:04:50;92976.34;;;20.48
69420;BMP280;56612;52.030;113.524;2022-08-23T12:11:08;92992.00;;;20.22
69420;BMP280;56612;52.030;113.524;2022-08-23T12:20:44;93000.63;;;20.04
69420;BMP280;56612;52.030;113.524;2022-08-23T12:23:55;93001.56;;;19.94
69420;BMP280;56612;52.030;113.524;2022-08-23T12:27:29;92997.06;;;19.85
69420;BMP280;56612;52.030;113.524;2022-08-23T12:30:58;93003.41;;;19.75
69420;BMP280;56612;52.030;113.524;2022-08-23T12:37:43;92994.75;;;19.69
69420;BMP280;56612;52.030;113.524;2022-08-23T12:40:51;93000.84;;;19.69
69420;BMP280;56612;52.030;113.524;2022-08-23T12:44:03;92991.88;;;19.77
69420;BMP280;56612;52.030;113.524;2022-08-23T12:47:11;93002.97;;;19.65
69420;BMP280;56612;52.030;113.524;2022-08-23T12:50:25;93005.81;;;19.60
69420;BMP280;56612;52.030;113.524;2022-08-23T12:53:40;92995.44;;;19.40
69420;BMP280;56612;52.030;113.524;2022-08-23T12:56:49;92997.53;;;19.38
69420;BMP280;56612;52.030;113.524;2022-08-23T13:00:21;93002.97;;;19.38
69420;BMP280;56612;52.030;113.524;2022-08-23T13:03:40;93003.91;;;19.26
69420;BMP280;56612;52.030;113.524;2022-08-23T13:06:50;92993.16;;;19.22
69420;BMP280;56612;52.030;113.524;2022-08-23T13:09:57;92991.81;;;19.21
69420;BMP280;56612;52.030;113.524;2022-08-23T13:13:02;92989.88;;;19.17
69420;BMP280;56612;52.030;113.524;2022-08-23T13:16:31;92987.19;;;19.17
69420;BMP280;56612;52.030;113.524;2022-08-23T13:19:35;92982.72;;;19.06
69420;BMP280;56612;52.030;113.524;2022-08-23T13:22:55;92988.19;;;19.02
69420;BMP280;56612;52.030;113.524;2022-08-23T13:26:38;92986.84;;;19.03
69420;BMP280;56612;52.030;113.524;2022-08-23T13:29:50;92989.72;;;18.95
69420;BMP280;56612;52.030;113.524;2022-08-23T13:36:14;92978.97;;;18.91
69420;BMP280;56612;52.030;113.524;2022-08-23T13:39:18;92976.19;;;18.95
69420;BMP280;56612;52.030;113.524;2022-08-23T13:42:44;92970.59;;;19.03
69420;BMP280;56612;52.030;113.524;2022-08-23T13:46:09;92978.22;;;18.94
69420;BMP280;56612;52.030;113.524;2022-08-23T13:49:15;92976.38;;;18.87
69420;BMP280;56612;52.030;113.524;2022-08-23T13:52:19;92976.38;;;18.87
69420;BMP280;56612;52.030;113.524;2022-08-23T13:55:52;92968.34;;;18.83
69420;BMP280;56612;52.030;113.524;2022-08-23T13:59:01;92973.84;;;18.78
69420;BMP280;56612;52.030;113.524;2022-08-23T14:02:12;92967.69;;;18.82
69420;BMP280;56612;52.030;113.524;2022-08-23T14:05:19;92977.28;;;18.75
69420;BMP280;56612;52.030;113.524;2022-08-23T14:08:24;92966.22;;;18.54
69420;BMP280;56612;52.030;113.524;2022-08-23T14:11:28;92976.47;;;18.50
69420;BMP280;56612;52.030;113.524;2022-08-23T14:14:33;92976.50;;;18.48
69420;BMP280;56612;52.030;113.524;2022-08-23T14:17:43;92979.84;;;18.50
69420;BMP280;56612;52.030;113.524;2022-08-23T14:20:48;92983.94;;;18.47
69420;BMP280;56612;52.030;113.524;2022-08-23T14:23:53;92979.97;;;18.44
69420;BMP280;56612;52.030;113.524;2022-08-23T14:26:57;92974.72;;;18.36
69420;BMP280;56612;52.030;113.524;2022-08-23T14:30:01;92968.56;;;18.37
69420;BMP280;56612;52.030;113.524;2022-08-23T14:33:07;92957.91;;;18.29
69420;BMP280;56612;52.030;113.524;2022-08-23T14:36:11;92962.72;;;18.27
69420;BMP280;56612;52.030;113.524;2022-08-23T14:39:15;92959.56;;;18.14
69420;BMP280;56612;52.030;113.524;2022-08-23T14:42:21;92955.75;;;18.03
69420;BMP280;56612;52.030;113.524;2022-08-23T14:45:26;92952.47;;;17.96
69420;BMP280;56612;52.030;113.524;2022-08-23T14:48:29;92962.69;;;17.92
69420;BMP280;56612;52.030;113.524;2022-08-23T14:51:38;92962.75;;;17.90
69420;BMP280;56612;52.030;113.524;2022-08-23T14:54:45;92964.31;;;17.77
69420;BMP280;56612;52.030;113.524;2022-08-23T14:57:48;92958.31;;;17.72
69420;BMP280;56612;52.030;113.524;2022-08-23T15:00:54;92950.44;;;17.60
69420;BMP280;56612;52.030;113.524;2022-08-23T15:03:58;92957.31;;;17.51
69420;BMP280;56612;52.030;113.524;2022-08-23T15:07:04;92951.38;;;17.44
69420;BMP280;56612;52.030;113.524;2022-08-23T15:10:24;92951.38;;;17.42
69420;BMP280;56612;52.030;113.524;2022-08-23T15:13:48;92944.78;;;17.33
69420;BMP280;56612;52.030;113.524;2022-08-23T15:16:58;92957.81;;;17.20
69420;BMP280;56612;52.030;113.524;2022-08-23T15:20:04;92960.59;;;17.14
69420;BMP280;56612;52.030;113.524;2022-08-23T15:23:08;92958.16;;;16.98
69420;BMP280;56612;52.030;113.524;2022-08-23T15:26:15;92960.91;;;16.94
69420;BMP280;56612;52.030;113.524;2022-08-23T15:29:19;92958.97;;;16.88
69420;BMP280;56612;52.030;113.524;2022-08-23T15:32:23;92959.66;;;16.87
69420;BMP280;56612;52.030;113.524;2022-08-23T15:35:28;92958.34;;;16.84
69420;BMP280;56612;52.030;113.524;2022-08-23T15:38:34;92957.22;;;16.69
69420;BMP280;56612;52.030;113.524;2022-08-23T15:41:39;92956.53;;;16.68
69420;BMP280;56612;52.030;113.524;2022-08-23T15:44:43;92966.72;;;16.62
69420;BMP280;56612;52.030;113.524;2022-08-23T15:47:50;92966.81;;;16.58
69420;BMP280;56612;52.030;113.524;2022-08-23T15:50:57;92965.53;;;16.50
69420;BMP280;56612;52.030;113.524;2022-08-23T15:54:01;92965.56;;;16.48
69420;BMP280;56612;52.030;113.524;2022-08-23T15:57:05;92954.28;;;16.32
69420;BMP280;56612;52.030;113.524;2022-08-23T16:00:11;92963.25;;;16.16
69420;BMP280;56612;52.030;113.524;2022-08-23T16:03:16;92962.03;;;16.05
69420;BMP280;56612;52.030;113.524;2022-08-23T16:06:23;92960.66;;;16.06
69420;BMP280;56612;52.030;113.524;2022-08-23T16:09:27;92959.38;;;15.99
69420;BMP280;56612;52.030;113.524;2022-08-23T16:12:31;92961.41;;;15.98
69420;BMP280;56612;52.030;113.524;2022-08-23T16:15:37;92960.78;;;15.94
69420;BMP280;56612;52.030;113.524;2022-08-23T16:18:41;92964.22;;;15.86
69420;BMP280;56612;52.030;113.524;2022-08-23T16:21:45;92964.88;;;15.87
69420;BMP280;56612;52.030;113.524;2022-08-23T16:24:49;92958.91;;;15.78
69420;BMP280;56612;52.030;113.524;2022-08-23T16:27:53;92957.63;;;15.71
69420;BMP280;56612;52.030;113.524;2022-08-23T16:30:56;92958.25;;;15.77
69420;BMP280;56612;52.030;113.524;2022-08-23T16:34:01;92960.28;;;15.75
69420;BMP280;56612;52.030;113.524;2022-08-23T16:37:06;92956.97;;;15.72
69420;BMP280;56612;52.030;113.524;2022-08-23T16:40:11;92966.38;;;15.69
69420;BMP280;56612;52.030;113.524;2022-08-23T16:43:15;92955.63;;;15.71
69420;BMP280;56612;52.030;113.524;2022-08-23T16:46:21;92969.13;;;15.63
69420;BMP280;56612;52.030;113.524;2022-08-23T16:49:25;92969.91;;;15.54
69420;BMP280;56612;52.030;113.524;2022-08-23T16:52:29;92963.94;;;15.43
69420;BMP280;56612;52.030;113.524;2022-08-23T16:55:37;92964.63;;;15.41
69420;BMP280;56612;52.030;113.524;2022-08-23T16:58:42;92965.31;;;15.40
69420;BMP280;56612;52.030;113.524;2022-08-23T17:01:56;92970.69;;;15.36
69420;BMP280;56612;52.030;113.524;2022-08-23T17:05:01;92973.44;;;15.30
69420;BMP280;56612;52.030;113.524;2022-08-23T17:08:05;92971.44;;;15.28
69420;BMP280;56612;52.030;113.524;2022-08-23T17:11:13;92962.72;;;15.24
69420;BMP280;56612;52.030;113.524;2022-08-23T17:14:17;92963.34;;;15.30
69420;BMP280;56612;52.030;113.524;2022-08-23T17:17:22;92961.38;;;15.25
69420;BMP280;56612;52.030;113.524;2022-08-23T17:20:29;92949.97;;;15.18
69420;BMP280;56612;52.030;113.524;2022-08-23T17:23:35;92950.72;;;15.10
69420;BMP280;56612;52.030;113.524;2022-08-23T17:26:42;92958.81;;;15.08
69420;BMP280;56612;52.030;113.524;2022-08-23T17:29:45;92949.44;;;14.97
69420;BMP280;56612;52.030;113.524;2022-08-23T17:32:52;92950.13;;;14.96
69420;BMP280;56612;52.030;113.524;2022-08-23T17:35:56;92952.84;;;14.94
69420;BMP280;56612;52.030;113.524;2022-08-23T17:39:01;92946.09;;;14.99
69420;BMP280;56612;52.030;113.524;2022-08-23T17:42:06;92954.84;;;14.99
69420;BMP280;56612;52.030;113.524;2022-08-23T17:45:10;92948.72;;;15.05
69420;BMP280;56612;52.030;113.524;2022-08-23T17:48:15;92946.72;;;15.03
69420;BMP280;56612;52.030;113.524;2022-08-23T17:51:20;92945.41;;;14.96
69420;BMP280;56612;52.030;113.524;2022-08-23T17:54:23;92955.50;;;15.00
69420;BMP280;56612;52.030;113.524;2022-08-23T17:57:29;92951.44;;;15.01
69420;BMP280;56612;52.030;113.524;2022-08-23T18:00:35;92950.78;;;14.96
69420;BMP280;56612;52.030;113.524;2022-08-23T18:03:40;92946.81;;;14.85
69420;BMP280;56612;52.030;113.524;2022-08-23T18:06:44;92947.41;;;14.98
69420;BMP280;56612;52.030;113.524;2022-08-23T18:09:48;92951.44;;;15.01
69420;BMP280;56612;52.030;113.524;2022-08-23T18:12:52;92940.66;;;15.05
69420;BMP280;56612;52.030;113.524;2022-08-23T18:15:55;92937.97;;;15.05
69420;BMP280;56612;52.030;113.524;2022-08-23T18:19:00;92942.69;;;15.04
69420;BMP280;56612;52.030;113.524;2022-08-23T18:22:04;92938.06;;;14.91
69420;BMP280;56612;52.030;113.524;2022-08-23T18:25:09;92934.00;;;14.92
69420;BMP280;56612;52.030;113.524;2022-08-23T18:28:16;92934.00;;;14.94
69420;BMP280;56612;52.030;113.524;2022-08-23T18:31:20;92925.25;;;14.93
69420;BMP280;56612;52.030;113.524;2022-08-23T18:34:24;92927.94;;;14.93
69420;BMP280;56612;52.030;113.524;2022-08-23T18:37:28;92925.31;;;14.83
69420;BMP280;56612;52.030;113.524;2022-08-23T18:40:33;92923.47;;;14.59
69420;BMP280;56612;52.030;113.524;2022-08-23T18:43:47;92928.19;;;14.49
69420;BMP280;56612;52.030;113.524;2022-08-23T18:46:51;92928.91;;;14.41
69420;BMP280;56612;52.030;113.524;2022-08-23T18:49:55;92925.63;;;14.26
69420;BMP280;56612;52.030;113.524;2022-08-23T18:52:59;92924.31;;;14.17
69420;BMP280;56612;52.030;113.524;2022-08-23T18:56:03;92927.00;;;14.11
69420;BMP280;56612;52.030;113.524;2022-08-23T18:59:08;92916.91;;;14.18
69420;BMP280;56612;52.030;113.524;2022-08-23T19:02:14;92924.94;;;14.20
69420;BMP280;56612;52.030;113.524;2022-08-23T19:05:18;92917.56;;;14.20
69420;BMP280;56612;52.030;113.524;2022-08-23T19:08:22;92924.94;;;14.22